PWSweather.com
Personal Weather Stations
Station Observations
IPUGLIAA10
Acquaviva Delle FontiIT 70021

Acquaviva Delle FontiIT 70021

Lat: 40.8906215, Lon: 16.8456484

Elevation: 1020

Station Type: Davis Vantage Vue

http://www.meteoacquaviva.it

Latest ConditionsUpdated 7:50:05 AM GMT+01:01 Sunday, Jul 23, 2017
Currently Today's Max Today's Min Today's Average
Temperature 87.6°F30.9°C 87.6°F30.9°C 75.0°F23.9°C 79.8°F26.6°C
Dew Point 56.5°F13.6°C 56.5°F13.6°C 49.5°F9.7°C 52.2°F11.2°C
Winds 1.2 mph 1.9 kmh 2.3 mph SW3.7 kmh SW - 0.8 mph 1.3 kmh
Wind Gusts 2.3 mph3.7 kmh 5.8 mph9.3 kmh - -
Humidity 35% 46% 34% 39%
Pressure 29.98 in1015.2 mb 29.99 in1015.6 mb 29.95 in1014.2 mb -
Hour Temp Dew Point Humidity Winds Wind Gusts Pressure Precip Precip Rate Daily Precip Total
07:50 AM 87.6°F30.9°C 56.5°F13.6°C 35% 1.2 mph 1.9 kmh 2.3 mph3.7 kmh 29.98 in1015.2 mb - 0.00 in0.0 mm 0.00 in0.0 mm
07:40 AM 87.2°F30.7°C 55.4°F13.0°C 34% 2.3 mph NW3.7 kmh NW 3.5 mph5.6 kmh 29.98 in1015.2 mb - 0.00 in0.0 mm 0.00 in0.0 mm
07:30 AM 86.5°F30.3°C 54.8°F12.7°C 34% 2.3 mph NNE3.7 kmh NNE 5.8 mph9.3 kmh 29.98 in1015.2 mb - 0.00 in0.0 mm 0.00 in0.0 mm
07:20 AM 86.1°F30.1°C 54.5°F12.5°C 34% 2.3 mph NW3.7 kmh NW 3.5 mph5.6 kmh 29.98 in1015.2 mb - 0.00 in0.0 mm 0.00 in0.0 mm
07:10 AM 85.9°F29.9°C 55.1°F12.8°C 35% 1.2 mph NW1.9 kmh NW 3.5 mph5.6 kmh 29.98 in1015.2 mb - 0.00 in0.0 mm 0.00 in0.0 mm
07:00 AM 85.3°F29.6°C 54.5°F12.5°C 35% 1.2 mph WNW1.9 kmh WNW 3.5 mph5.6 kmh 29.98 in1015.2 mb - 0.00 in0.0 mm 0.00 in0.0 mm
06:50 AM 85.6°F29.8°C 54.0°F12.2°C 34% Calm Calm 1.2 mph1.9 kmh 29.98 in1015.2 mb - 0.00 in0.0 mm 0.00 in0.0 mm
06:40 AM 84.4°F29.1°C 54.5°F12.5°C 36% Calm Calm -- 29.98 in1015.2 mb - 0.00 in0.0 mm 0.00 in0.0 mm
06:30 AM 81.4°F27.4°C 54.1°F12.3°C 39% Calm Calm -- 29.98 in1015.2 mb - 0.00 in0.0 mm 0.00 in0.0 mm
06:20 AM 79.3°F26.3°C 53.6°F12.0°C 41% Calm Calm -- 29.98 in1015.2 mb - 0.00 in0.0 mm 0.00 in0.0 mm
06:10 AM 78.3°F25.7°C 54.0°F12.2°C 43% Calm Calm -- 29.98 in1015.2 mb - 0.00 in0.0 mm 0.00 in0.0 mm
06:00 AM 78.1°F25.6°C 52.5°F11.4°C 41% Calm Calm -- 29.98 in1015.2 mb - 0.00 in0.0 mm 0.00 in0.0 mm
05:50 AM 77.2°F25.1°C 51.7°F10.9°C 41% Calm Calm -- 29.98 in1015.2 mb - 0.00 in0.0 mm 0.00 in0.0 mm
05:40 AM 75.4°F24.1°C 52.0°F11.1°C 44% Calm Calm 1.2 mph1.9 kmh 29.99 in1015.6 mb - 0.00 in0.0 mm 0.00 in0.0 mm
05:30 AM 75.0°F23.9°C 51.6°F10.9°C 44% Calm Calm -- 29.99 in1015.6 mb - 0.00 in0.0 mm 0.00 in0.0 mm
05:20 AM 75.3°F24.1°C 50.7°F10.4°C 42% Calm Calm 1.2 mph1.9 kmh 29.98 in1015.2 mb - 0.00 in0.0 mm 0.00 in0.0 mm
05:10 AM 76.0°F24.4°C 51.3°F10.7°C 42% Calm Calm 1.2 mph1.9 kmh 29.99 in1015.6 mb - 0.00 in0.0 mm 0.00 in0.0 mm
05:00 AM 76.8°F24.9°C 51.3°F10.7°C 41% 1.2 mph SW1.9 kmh SW 3.5 mph5.6 kmh 29.98 in1015.2 mb - 0.00 in0.0 mm 0.00 in0.0 mm
04:50 AM 77.2°F25.1°C 51.0°F10.6°C 40% 1.2 mph SW1.9 kmh SW 3.5 mph5.6 kmh 29.98 in1015.2 mb - 0.00 in0.0 mm 0.00 in0.0 mm
04:40 AM 77.5°F25.3°C 51.3°F10.7°C 40% Calm Calm 1.2 mph1.9 kmh 29.98 in1015.2 mb - 0.00 in0.0 mm 0.00 in0.0 mm
04:30 AM 77.9°F25.5°C 51.6°F10.9°C 40% Calm Calm -- 29.98 in1015.2 mb - 0.00 in0.0 mm 0.00 in0.0 mm
04:20 AM 78.0°F25.6°C 51.0°F10.6°C 39% 1.2 mph WNW1.9 kmh WNW 3.5 mph5.6 kmh 29.98 in1015.2 mb - 0.00 in0.0 mm 0.00 in0.0 mm
04:10 AM 78.4°F25.8°C 51.4°F10.8°C 39% 1.2 mph WNW1.9 kmh WNW 3.5 mph5.6 kmh 29.98 in1015.2 mb - 0.00 in0.0 mm 0.00 in0.0 mm
04:00 AM 78.9°F26.1°C 51.1°F10.6°C 38% 1.2 mph NW1.9 kmh NW 3.5 mph5.6 kmh 29.98 in1015.2 mb - 0.00 in0.0 mm 0.00 in0.0 mm
03:30 AM 79.9°F26.6°C 50.5°F10.3°C 36% Calm Calm -- 29.96 in1014.6 mb - 0.00 in0.0 mm 0.00 in0.0 mm
03:20 AM 79.8°F26.6°C 50.5°F10.3°C 36% 1.2 mph NW1.9 kmh NW 3.5 mph5.6 kmh 29.96 in1014.6 mb - 0.00 in0.0 mm 0.00 in0.0 mm
03:10 AM 79.6°F26.4°C 50.3°F10.2°C 36% Calm Calm 1.2 mph1.9 kmh 29.95 in1014.2 mb - 0.00 in0.0 mm 0.00 in0.0 mm
03:00 AM 80.0°F26.7°C 49.9°F9.9°C 35% Calm Calm -- 29.95 in1014.2 mb - 0.00 in0.0 mm 0.00 in0.0 mm
02:50 AM 80.5°F26.9°C 50.3°F10.2°C 35% Calm Calm 1.2 mph1.9 kmh 29.95 in1014.2 mb - 0.00 in0.0 mm 0.00 in0.0 mm
02:40 AM 80.1°F26.7°C 50.0°F10.0°C 35% 2.3 mph SW3.7 kmh SW 3.5 mph5.6 kmh 29.95 in1014.2 mb - 0.00 in0.0 mm 0.00 in0.0 mm
02:30 AM 79.8°F26.6°C 49.7°F9.8°C 35% 2.3 mph WSW3.7 kmh WSW 2.3 mph3.7 kmh 29.95 in1014.2 mb - 0.00 in0.0 mm 0.00 in0.0 mm
02:20 AM 79.6°F26.4°C 49.5°F9.7°C 35% 1.2 mph WSW1.9 kmh WSW 3.5 mph5.6 kmh 29.95 in1014.2 mb - 0.00 in0.0 mm 0.00 in0.0 mm
02:10 AM 79.9°F26.6°C 49.8°F9.9°C 35% 2.3 mph WSW3.7 kmh WSW 3.5 mph5.6 kmh 29.95 in1014.2 mb - 0.00 in0.0 mm 0.00 in0.0 mm
02:00 AM 79.9°F26.6°C 50.6°F10.3°C 36% Calm Calm 2.3 mph3.7 kmh 29.96 in1014.6 mb - 0.00 in0.0 mm 0.00 in0.0 mm
01:50 AM 79.9°F26.6°C 50.6°F10.3°C 36% Calm Calm 1.2 mph1.9 kmh 29.96 in1014.6 mb - 0.00 in0.0 mm 0.00 in0.0 mm
01:40 AM 80.2°F26.8°C 50.8°F10.4°C 36% 1.2 mph SW1.9 kmh SW 2.3 mph3.7 kmh 29.96 in1014.6 mb - 0.00 in0.0 mm 0.00 in0.0 mm
01:30 AM 79.6°F26.4°C 51.0°F10.6°C 37% 2.3 mph WSW3.7 kmh WSW 3.5 mph5.6 kmh 29.96 in1014.6 mb - 0.00 in0.0 mm 0.00 in0.0 mm
01:20 AM 79.3°F26.3°C 51.5°F10.8°C 38% 1.2 mph SW1.9 kmh SW 3.5 mph5.6 kmh 29.96 in1014.6 mb - 0.00 in0.0 mm 0.00 in0.0 mm
01:10 AM 79.6°F26.4°C 52.5°F11.4°C 39% Calm Calm 2.3 mph3.7 kmh 29.97 in1014.9 mb - 0.00 in0.0 mm 0.00 in0.0 mm
01:00 AM 79.9°F26.6°C 52.7°F11.5°C 39% 1.2 mph SW1.9 kmh SW 2.3 mph3.7 kmh 29.97 in1014.9 mb - 0.00 in0.0 mm 0.00 in0.0 mm
12:50 AM 79.4°F26.3°C 53.0°F11.7°C 40% 2.3 mph WSW3.7 kmh WSW 3.5 mph5.6 kmh 29.97 in1014.9 mb - 0.00 in0.0 mm 0.00 in0.0 mm
12:40 AM 78.1°F25.6°C 53.8°F12.1°C 43% Calm Calm 3.5 mph5.6 kmh 29.97 in1014.9 mb - 0.00 in0.0 mm 0.00 in0.0 mm
12:30 AM 76.7°F24.8°C 53.7°F12.1°C 45% 2.3 mph SW3.7 kmh SW 3.5 mph5.6 kmh 29.97 in1014.9 mb - 0.00 in0.0 mm 0.00 in0.0 mm
12:20 AM 76.4°F24.7°C 54.1°F12.3°C 46% 1.2 mph SW1.9 kmh SW 3.5 mph5.6 kmh 29.97 in1014.9 mb - 0.00 in0.0 mm 0.00 in0.0 mm
12:10 AM 76.1°F24.5°C 53.8°F12.1°C 46% 1.2 mph SW1.9 kmh SW 2.3 mph3.7 kmh 29.98 in1015.2 mb - 0.00 in0.0 mm 0.00 in0.0 mm
12:00 AM 76.6°F24.8°C 53.7°F12.1°C 45% Calm Calm -- 29.98 in1015.2 mb - 0.00 in0.0 mm 0.00 in0.0 mm